createdAt,value
2022-10-18T00:01:09.053Z,34.49
2022-10-18T00:03:37.481Z,34.92
2022-10-18T00:06:06.776Z,34.61
2022-10-18T00:08:37.113Z,35.28
2022-10-18T00:11:08.768Z,34.90
2022-10-18T00:13:37.418Z,35.18
2022-10-18T00:16:11.939Z,35.67
2022-10-18T00:18:40.652Z,34.62
2022-10-18T00:21:12.223Z,33.87
2022-10-18T00:23:40.737Z,33.93
2022-10-18T00:26:13.348Z,32.99
2022-10-18T00:28:42.367Z,33.46
2022-10-18T00:31:23.593Z,32.29
2022-10-18T00:33:54.547Z,32.03
2022-10-18T00:36:23.639Z,32.06
2022-10-18T00:38:52.832Z,31.94
2022-10-18T00:41:25.665Z,32.38
2022-10-18T00:44:05.238Z,31.89
2022-10-18T00:46:35.921Z,33.18
2022-10-18T00:49:08.650Z,32.73
2022-10-18T00:51:41.690Z,34.40
2022-10-18T00:54:11.642Z,33.81
2022-10-18T00:56:40.042Z,33.86
2022-10-18T00:59:08.614Z,34.38
2022-10-18T01:01:36.637Z,34.34
2022-10-18T01:04:04.782Z,35.14
2022-10-18T01:06:38.025Z,34.40
2022-10-18T01:09:18.067Z,33.58
2022-10-18T01:12:23.960Z,33.39
2022-10-18T01:15:20.313Z,32.41
2022-10-18T01:18:02.068Z,32.36
2022-10-18T01:21:15.382Z,32.30
2022-10-18T01:24:02.276Z,32.06
2022-10-18T01:26:37.287Z,33.78
2022-10-18T01:29:42.554Z,34.68
2022-10-18T01:32:25.092Z,34.36
2022-10-18T01:35:00.003Z,33.88
2022-10-18T01:37:30.926Z,33.50
2022-10-18T01:40:00.802Z,34.89
2022-10-18T01:42:28.758Z,36.20
2022-10-18T01:45:00.157Z,36.75
2022-10-18T01:47:28.450Z,38.17
2022-10-18T01:50:06.180Z,38.01
2022-10-18T01:52:34.819Z,38.86
2022-10-18T01:55:03.726Z,37.86
2022-10-18T01:57:43.312Z,41.65
2022-10-18T02:00:24.701Z,41.97
2022-10-18T02:03:15.750Z,44.89
2022-10-18T02:05:54.672Z,46.25
2022-10-18T02:08:50.103Z,46.54
2022-10-18T02:11:18.718Z,44.08
2022-10-18T02:14:00.747Z,42.04
2022-10-18T02:16:38.078Z,39.83
2022-10-18T02:19:13.417Z,40.21
2022-10-18T02:21:43.991Z,39.41
2022-10-18T02:24:15.068Z,38.83
2022-10-18T02:26:43.552Z,38.03
2022-10-18T02:29:11.583Z,39.13
2022-10-18T02:31:50.191Z,39.93
2022-10-18T02:34:31.617Z,40.05
2022-10-18T02:37:00.998Z,40.10
2022-10-18T02:39:40.764Z,41.91
2022-10-18T02:42:10.496Z,41.37
2022-10-18T02:44:38.962Z,40.79
2022-10-18T02:47:09.134Z,39.59
2022-10-18T02:49:37.079Z,39.02
2022-10-18T02:52:05.056Z,36.68
2022-10-18T02:54:33.305Z,36.55
2022-10-18T02:57:01.294Z,38.59
2022-10-18T02:59:29.447Z,40.95
2022-10-18T03:01:57.529Z,39.42
2022-10-18T03:04:25.721Z,41.27
2022-10-18T03:06:53.761Z,39.24
2022-10-18T03:09:21.813Z,37.62
2022-10-18T03:11:50.040Z,38.76
2022-10-18T03:14:18.855Z,37.38
2022-10-18T03:16:46.908Z,36.10
2022-10-18T03:19:14.876Z,36.80
2022-10-18T03:21:42.913Z,35.70
2022-10-18T03:24:10.879Z,34.00
2022-10-18T03:26:39.008Z,33.85
2022-10-18T03:29:07.121Z,33.87
2022-10-18T03:31:35.172Z,33.55
2022-10-18T03:34:03.336Z,32.52
2022-10-18T03:36:31.543Z,34.32
2022-10-18T03:38:59.554Z,34.01
2022-10-18T03:41:28.665Z,31.91
2022-10-18T03:43:56.621Z,29.91
2022-10-18T03:46:24.792Z,31.00
2022-10-18T03:48:52.775Z,33.26
2022-10-18T03:51:20.751Z,31.74
2022-10-18T03:53:48.708Z,30.62
2022-10-18T03:56:16.688Z,29.82
2022-10-18T03:58:44.649Z,31.36
2022-10-18T04:01:12.666Z,30.19
2022-10-18T04:03:40.633Z,30.06
2022-10-18T04:06:09.997Z,30.45
2022-10-18T04:08:38.267Z,28.65
2022-10-18T04:11:10.892Z,29.75
2022-10-18T04:13:39.269Z,29.70
2022-10-18T04:16:07.439Z,27.86
2022-10-18T04:18:35.444Z,29.01
2022-10-18T04:21:03.658Z,29.23
2022-10-18T04:23:33.860Z,29.51
2022-10-18T04:26:04.891Z,30.23
2022-10-18T04:28:34.008Z,29.54
2022-10-18T04:31:02.207Z,29.12
2022-10-18T04:33:30.431Z,28.11
2022-10-18T04:35:58.412Z,29.71
2022-10-18T04:38:26.551Z,30.97
2022-10-18T04:40:54.501Z,31.12
2022-10-18T04:43:22.724Z,31.50
2022-10-18T04:45:51.237Z,30.83
2022-10-18T04:48:19.280Z,30.96
2022-10-18T04:50:51.272Z,30.87
2022-10-18T04:53:19.802Z,30.33
2022-10-18T04:55:51.185Z,32.00
2022-10-18T04:58:19.726Z,38.64
2022-10-18T05:00:47.883Z,34.64
2022-10-18T05:03:16.308Z,33.59
2022-10-18T05:06:03.140Z,34.75
2022-10-18T05:08:34.071Z,33.86
2022-10-18T05:11:03.637Z,33.18
2022-10-18T05:13:31.767Z,33.65
2022-10-18T05:16:00.808Z,33.80
2022-10-18T05:18:28.921Z,34.88
2022-10-18T05:20:57.578Z,35.11
2022-10-18T05:23:25.662Z,36.62
2022-10-18T05:25:54.115Z,39.77
2022-10-18T05:28:40.982Z,40.74
2022-10-18T05:31:12.144Z,42.07
2022-10-18T05:33:40.385Z,41.95
2022-10-18T05:36:10.322Z,41.15
2022-10-18T05:38:42.872Z,43.30
2022-10-18T05:41:12.995Z,42.69
2022-10-18T05:43:42.228Z,43.32
2022-10-18T05:46:15.068Z,39.14
2022-10-18T05:48:51.076Z,35.43
2022-10-18T05:51:19.785Z,36.52
2022-10-18T05:53:47.983Z,34.81
2022-10-18T05:56:16.834Z,34.05
2022-10-18T05:58:45.975Z,35.44
2022-10-18T06:01:14.527Z,34.13
2022-10-18T06:03:44.359Z,32.94
2022-10-18T06:06:14.785Z,33.25
2022-10-18T06:08:49.980Z,33.76
2022-10-18T06:11:20.285Z,34.92
2022-10-18T06:13:50.131Z,33.81
2022-10-18T06:16:23.047Z,35.11
2022-10-18T06:18:53.931Z,36.86
2022-10-18T06:21:23.282Z,39.23
2022-10-18T06:23:53.063Z,39.80
2022-10-18T06:26:21.851Z,43.57
2022-10-18T06:28:50.087Z,42.62
2022-10-18T06:31:21.284Z,42.91
2022-10-18T06:33:49.461Z,51.38
2022-10-18T06:36:19.665Z,61.38
2022-10-18T06:38:48.606Z,59.95
2022-10-18T06:41:17.913Z,65.78
2022-10-18T06:43:54.098Z,70.88
2022-10-18T06:46:22.018Z,71.18
2022-10-18T06:48:50.028Z,72.20
2022-10-18T06:51:18.547Z,72.05
2022-10-18T06:53:59.133Z,72.67
2022-10-18T06:56:35.587Z,71.63
2022-10-18T06:59:04.136Z,70.64
2022-10-18T07:01:32.130Z,63.07
2022-10-18T07:04:00.151Z,61.51
2022-10-18T07:06:28.132Z,60.68
2022-10-18T07:08:57.141Z,58.30
2022-10-18T07:11:26.810Z,64.04
2022-10-18T07:14:04.764Z,62.85
2022-10-18T07:16:34.744Z,61.59
2022-10-18T07:19:03.031Z,62.12
2022-10-18T07:21:31.523Z,61.78
2022-10-18T07:23:59.409Z,62.19
2022-10-18T07:26:29.875Z,61.60
2022-10-18T07:29:02.733Z,62.37
2022-10-18T07:31:30.983Z,63.98
2022-10-18T07:33:59.122Z,63.77
2022-10-18T07:36:27.345Z,63.58
2022-10-18T07:38:55.278Z,65.51
2022-10-18T07:41:23.844Z,64.28
2022-10-18T07:43:53.400Z,63.33
2022-10-18T07:46:22.660Z,62.82
2022-10-18T07:48:51.656Z,61.72
2022-10-18T07:51:20.565Z,60.52
2022-10-18T07:53:48.694Z,60.60
2022-10-18T07:56:21.261Z,60.58
2022-10-18T07:58:52.242Z,60.46
2022-10-18T08:01:25.291Z,60.13
2022-10-18T08:03:53.562Z,58.93
2022-10-18T08:06:22.815Z,58.54
2022-10-18T08:08:52.252Z,58.08
2022-10-18T08:11:23.515Z,54.84
2022-10-18T08:13:53.213Z,51.35
2022-10-18T08:16:27.338Z,49.49
2022-10-18T08:18:58.803Z,47.29
2022-10-18T08:21:27.058Z,46.85
2022-10-18T08:23:55.334Z,44.86
2022-10-18T08:26:24.868Z,44.92
2022-10-18T08:29:09.906Z,44.26
2022-10-18T08:31:40.933Z,40.73
2022-10-18T08:34:08.818Z,40.95
2022-10-18T08:36:37.359Z,37.70
2022-10-18T08:39:05.315Z,36.68
2022-10-18T08:41:49.242Z,36.11
2022-10-18T08:44:27.007Z,35.17
2022-10-18T08:47:19.102Z,34.70
2022-10-18T08:50:03.886Z,34.41
2022-10-18T08:52:35.113Z,35.18
2022-10-18T08:55:46.433Z,36.26
2022-10-18T08:58:27.196Z,35.71
2022-10-18T09:01:19.272Z,34.71
2022-10-18T09:04:27.514Z,33.93
2022-10-18T09:07:04.648Z,34.11
2022-10-18T09:10:00.148Z,34.56
2022-10-18T09:12:46.312Z,37.60
2022-10-18T09:15:40.424Z,38.23
2022-10-18T09:18:49.731Z,36.01
2022-10-18T09:21:22.850Z,35.55
2022-10-18T09:24:06.327Z,33.14
2022-10-18T09:26:44.554Z,33.42
2022-10-18T09:29:50.944Z,32.15
2022-10-18T09:32:49.111Z,30.54
2022-10-18T09:35:22.660Z,30.61
2022-10-18T09:37:55.684Z,29.72
2022-10-18T09:40:28.374Z,28.07
2022-10-18T09:43:17.426Z,26.51
2022-10-18T09:45:46.142Z,25.57
2022-10-18T09:48:28.028Z,24.28
2022-10-18T09:51:21.778Z,23.65
2022-10-18T09:53:58.871Z,22.80
2022-10-18T09:56:39.411Z,23.83
2022-10-18T09:59:49.966Z,23.70
2022-10-18T10:02:23.498Z,24.06
2022-10-18T10:04:54.460Z,23.87
2022-10-18T10:07:31.068Z,23.32
2022-10-18T10:10:14.267Z,25.13
2022-10-18T10:12:42.365Z,25.16
2022-10-18T10:15:23.545Z,25.16
2022-10-18T10:18:07.105Z,24.92
2022-10-18T10:20:56.894Z,25.33
2022-10-18T10:23:28.357Z,26.01
2022-10-18T10:25:59.301Z,26.58
2022-10-18T10:28:35.798Z,27.13
2022-10-18T10:31:25.198Z,27.94
2022-10-18T10:34:14.940Z,28.77
2022-10-18T10:36:51.911Z,27.78
2022-10-18T10:39:22.093Z,28.86
2022-10-18T10:41:49.949Z,28.96
2022-10-18T10:44:23.559Z,29.36
2022-10-18T10:46:53.017Z,29.35
2022-10-18T10:49:40.318Z,29.59
2022-10-18T10:52:28.781Z,30.46
2022-10-18T10:55:11.040Z,30.94
2022-10-18T10:57:48.495Z,31.89
2022-10-18T11:00:38.118Z,33.55
2022-10-18T11:03:27.922Z,33.57
2022-10-18T11:06:00.951Z,34.13
2022-10-18T11:08:39.232Z,34.02
2022-10-18T11:11:34.129Z,33.10
2022-10-18T11:14:25.853Z,32.06
2022-10-18T11:16:56.728Z,33.31
2022-10-18T11:20:12.007Z,34.60
2022-10-18T11:23:16.878Z,33.69
2022-10-18T11:26:07.025Z,34.39
2022-10-18T11:28:37.629Z,34.48
2022-10-18T11:31:25.304Z,33.79
2022-10-18T11:34:10.353Z,32.86
2022-10-18T11:37:29.169Z,36.12
2022-10-18T11:40:01.333Z,32.26
2022-10-18T11:42:49.119Z,32.07
2022-10-18T11:45:34.602Z,32.36
2022-10-18T11:48:16.345Z,32.34
2022-10-18T11:50:53.433Z,31.37
2022-10-18T11:53:23.949Z,31.16
2022-10-18T11:56:03.821Z,29.88
2022-10-18T11:58:31.649Z,30.76
2022-10-18T12:01:30.664Z,29.76
2022-10-18T12:04:21.218Z,29.15
2022-10-18T12:06:52.983Z,29.52
2022-10-18T12:09:26.709Z,28.12
2022-10-18T12:12:03.455Z,28.42
2022-10-18T12:14:46.272Z,29.24
2022-10-18T12:17:43.979Z,29.63
2022-10-18T12:20:23.858Z,29.11
2022-10-18T12:23:20.271Z,29.86
2022-10-18T12:26:03.726Z,29.74
2022-10-18T12:29:01.105Z,29.25
2022-10-18T12:31:55.218Z,27.96
2022-10-18T12:34:23.110Z,27.15
2022-10-18T12:37:09.642Z,26.36
2022-10-18T12:40:08.993Z,26.80
2022-10-18T12:42:43.873Z,24.93
2022-10-18T12:45:33.471Z,25.00
2022-10-18T12:48:08.079Z,24.06
2022-10-18T12:50:39.193Z,24.65
2022-10-18T12:53:10.462Z,24.22
2022-10-18T12:58:15.705Z,22.92
2022-10-18T13:00:43.828Z,23.89
2022-10-18T13:03:16.707Z,23.38
2022-10-18T13:05:55.979Z,22.45
2022-10-18T13:08:27.433Z,22.14
2022-10-18T13:11:01.323Z,19.57
2022-10-18T13:13:42.844Z,18.86
2022-10-18T13:16:22.965Z,16.95
2022-10-18T13:18:54.792Z,16.94
2022-10-18T13:21:43.506Z,15.98
2022-10-18T13:24:14.558Z,14.88
2022-10-18T13:27:42.562Z,15.13
2022-10-18T13:30:26.555Z,13.84
2022-10-18T13:33:19.438Z,15.07
2022-10-18T13:36:04.831Z,16.02
2022-10-18T13:38:41.922Z,16.65
2022-10-18T13:41:34.390Z,15.45
2022-10-18T13:44:30.687Z,14.23
2022-10-18T13:46:58.727Z,15.85
2022-10-18T13:49:39.563Z,14.12
2022-10-18T13:52:32.823Z,13.89
2022-10-18T13:55:32.633Z,15.67
2022-10-18T13:58:06.410Z,14.06
2022-10-18T14:01:11.498Z,13.88
2022-10-18T14:04:24.934Z,12.81
2022-10-18T14:07:02.317Z,13.34
2022-10-18T14:09:52.395Z,14.59
2022-10-18T14:12:40.759Z,14.43
2022-10-18T14:15:27.635Z,15.34
2022-10-18T14:18:16.407Z,13.27
2022-10-18T14:21:12.444Z,15.76
2022-10-18T14:23:44.794Z,14.31
2022-10-18T14:26:18.078Z,13.89
2022-10-18T14:29:02.916Z,11.00
2022-10-18T14:31:31.080Z,10.01
2022-10-18T14:34:00.490Z,24.41
2022-10-18T14:36:41.025Z,22.47
2022-10-18T14:39:21.264Z,17.15
2022-10-18T14:41:54.758Z,12.44
2022-10-18T14:44:29.633Z,11.16
2022-10-18T14:47:09.632Z,11.20
2022-10-18T14:49:44.058Z,11.19
2022-10-18T14:52:30.460Z,18.71
2022-10-18T14:55:02.410Z,15.72
2022-10-18T14:57:37.868Z,13.31
2022-10-18T15:00:21.959Z,12.94
2022-10-18T15:02:49.999Z,13.03
2022-10-18T15:05:23.685Z,12.93
2022-10-18T15:07:52.753Z,11.84
2022-10-18T15:10:25.979Z,12.71
2022-10-18T15:13:09.429Z,11.98
2022-10-18T15:15:38.968Z,12.24
2022-10-18T15:18:08.419Z,12.15
2022-10-18T15:20:42.933Z,12.35
2022-10-18T15:23:32.538Z,12.52
2022-10-18T15:26:07.295Z,12.48
2022-10-18T15:28:49.922Z,13.59
2022-10-18T15:31:25.782Z,13.60
2022-10-18T15:34:24.423Z,20.31
2022-10-18T15:36:55.264Z,18.55
2022-10-18T15:39:26.448Z,22.79
2022-10-18T15:42:00.239Z,20.41
2022-10-18T15:44:49.269Z,15.79
2022-10-18T15:47:21.470Z,13.73
2022-10-18T15:49:54.662Z,13.95
2022-10-18T15:52:40.848Z,14.25
2022-10-18T15:55:42.814Z,15.32
2022-10-18T15:58:17.946Z,15.06
2022-10-18T16:00:47.778Z,15.45
2022-10-18T16:03:16.684Z,16.47
2022-10-18T16:05:45.478Z,17.82
2022-10-18T16:08:37.175Z,16.52
2022-10-18T16:11:05.485Z,16.04
2022-10-18T16:13:33.998Z,15.97
2022-10-18T16:16:02.010Z,16.15
2022-10-18T16:18:30.010Z,16.65
2022-10-18T16:20:57.974Z,18.22
2022-10-18T16:23:28.923Z,17.73
2022-10-18T16:25:57.469Z,16.81
2022-10-18T16:28:26.312Z,18.75
2022-10-18T16:30:57.955Z,21.89
2022-10-18T16:33:27.104Z,34.52
2022-10-18T16:35:55.935Z,28.50
2022-10-18T16:38:35.164Z,23.67
2022-10-18T16:41:05.922Z,20.35
2022-10-18T16:43:35.260Z,19.18
2022-10-18T16:46:04.264Z,18.34
2022-10-18T16:48:33.357Z,17.69
2022-10-18T16:51:02.002Z,18.52
2022-10-18T16:53:30.049Z,17.56
2022-10-18T16:56:00.651Z,17.64
2022-10-18T16:58:30.648Z,17.73
2022-10-18T17:01:00.376Z,18.21
2022-10-18T17:03:29.949Z,18.47
2022-10-18T17:05:58.698Z,19.62
2022-10-18T17:08:28.088Z,21.07
2022-10-18T17:10:58.692Z,20.73
2022-10-18T17:13:26.779Z,20.68
2022-10-18T17:15:54.761Z,23.50
2022-10-18T17:18:26.537Z,23.89
2022-10-18T17:20:54.661Z,22.95
2022-10-18T17:23:23.001Z,21.60
2022-10-18T17:26:05.119Z,22.09
2022-10-18T17:28:38.534Z,22.00
2022-10-18T17:31:07.446Z,21.24
2022-10-18T17:33:36.035Z,22.19
2022-10-18T17:36:04.428Z,22.78
2022-10-18T17:38:32.590Z,21.46
2022-10-18T17:41:06.327Z,20.75
2022-10-18T17:43:34.532Z,20.85
2022-10-18T17:46:02.628Z,21.24
2022-10-18T17:48:30.781Z,25.35
2022-10-18T17:50:59.566Z,28.01
2022-10-18T17:53:29.151Z,23.57
2022-10-18T17:56:02.386Z,21.05
2022-10-18T17:58:32.082Z,20.91
2022-10-18T18:01:22.271Z,20.14
2022-10-18T18:03:55.347Z,23.13
2022-10-18T18:06:34.947Z,23.67
2022-10-18T18:09:07.437Z,20.10
2022-10-18T18:11:37.395Z,22.67
2022-10-18T18:14:09.023Z,24.15
2022-10-18T18:16:41.300Z,23.67
2022-10-18T18:19:10.281Z,23.69
2022-10-18T18:21:38.932Z,23.96
2022-10-18T18:24:07.792Z,26.50
2022-10-18T18:26:36.722Z,26.06
2022-10-18T18:29:05.055Z,26.20
2022-10-18T18:31:38.766Z,28.97
2022-10-18T18:34:10.285Z,28.54
2022-10-18T18:36:38.844Z,26.46
2022-10-18T18:39:07.384Z,33.92
2022-10-18T18:41:35.382Z,36.02
2022-10-18T18:44:05.497Z,35.38
2022-10-18T18:46:38.791Z,39.67
2022-10-18T18:49:08.259Z,35.21
2022-10-18T18:51:40.380Z,36.06
2022-10-18T18:54:09.783Z,42.79
2022-10-18T18:56:38.121Z,56.44
2022-10-18T18:59:06.199Z,41.48
2022-10-18T19:01:38.062Z,27.78
2022-10-18T19:04:11.005Z,26.51
2022-10-18T19:06:42.110Z,26.23
2022-10-18T19:09:19.007Z,27.40
2022-10-18T19:11:52.414Z,27.42
2022-10-18T19:16:57.506Z,25.85
2022-10-18T19:19:27.981Z,26.76
2022-10-18T19:22:01.568Z,26.20
2022-10-18T19:24:30.357Z,26.42
2022-10-18T19:27:09.664Z,27.11
2022-10-18T19:29:39.080Z,27.95
2022-10-18T19:32:12.153Z,27.71
2022-10-18T19:34:41.407Z,25.42
2022-10-18T19:37:11.471Z,26.08
2022-10-18T19:39:39.588Z,26.22
2022-10-18T19:42:11.181Z,24.05
2022-10-18T19:44:40.893Z,23.73
2022-10-18T19:47:12.695Z,23.64
2022-10-18T19:49:43.069Z,23.78
2022-10-18T19:52:12.440Z,23.51
2022-10-18T19:54:40.522Z,23.15
2022-10-18T19:57:08.736Z,23.78
2022-10-18T19:59:36.704Z,23.89
2022-10-18T20:02:04.926Z,24.45
2022-10-18T20:04:35.133Z,25.37
2022-10-18T20:07:03.445Z,25.17
2022-10-18T20:09:31.394Z,26.29
2022-10-18T20:11:59.404Z,26.34
2022-10-18T20:14:27.384Z,26.23
2022-10-18T20:16:55.313Z,26.49
2022-10-18T20:19:23.289Z,24.91
2022-10-18T20:21:51.258Z,24.76
2022-10-18T20:24:19.139Z,24.05
2022-10-18T20:26:47.142Z,24.89
2022-10-18T20:29:15.240Z,22.71
2022-10-18T20:31:43.180Z,22.20
2022-10-18T20:34:12.142Z,22.01
2022-10-18T20:36:40.350Z,21.92
2022-10-18T20:39:08.408Z,22.24
2022-10-18T20:41:38.951Z,22.27
2022-10-18T20:44:11.429Z,21.16
2022-10-18T20:46:40.162Z,20.99
2022-10-18T20:49:10.508Z,21.48
2022-10-18T20:51:38.479Z,21.07
2022-10-18T20:54:10.833Z,20.74
2022-10-18T20:56:39.734Z,21.10
2022-10-18T20:59:10.000Z,21.44
2022-10-18T21:01:39.306Z,19.97
2022-10-18T21:04:09.407Z,20.60
2022-10-18T21:06:42.985Z,20.60
2022-10-18T21:09:17.288Z,20.54
2022-10-18T21:11:51.090Z,20.25
2022-10-18T21:14:21.204Z,19.90
2022-10-18T21:16:50.672Z,19.86
2022-10-18T21:19:26.486Z,19.73
2022-10-18T21:21:56.867Z,19.50
2022-10-18T21:24:26.699Z,19.36
2022-10-18T21:26:54.865Z,19.93
2022-10-18T21:29:27.168Z,19.71
2022-10-18T21:31:58.073Z,19.61
2022-10-18T21:34:26.677Z,19.80
2022-10-18T21:36:54.835Z,19.72
2022-10-18T21:41:57.103Z,19.70
2022-10-18T21:44:25.245Z,19.72
2022-10-18T21:46:53.170Z,19.45
2022-10-18T21:49:24.883Z,19.26
2022-10-18T21:51:52.853Z,19.47
2022-10-18T21:54:20.928Z,20.57
2022-10-18T21:56:48.819Z,19.53
2022-10-18T21:59:17.735Z,20.93
2022-10-18T22:01:45.869Z,21.08
2022-10-18T22:04:22.434Z,19.75
2022-10-18T22:06:50.672Z,20.70
2022-10-18T22:09:19.415Z,20.80
2022-10-18T22:11:51.305Z,20.76
2022-10-18T22:14:19.442Z,20.42
2022-10-18T22:16:47.497Z,20.59
2022-10-18T22:19:15.662Z,19.55
2022-10-18T22:21:43.751Z,19.64
2022-10-18T22:24:11.675Z,20.35
2022-10-18T22:26:42.009Z,20.33
2022-10-18T22:29:18.891Z,19.45
2022-10-18T22:31:50.136Z,19.91
2022-10-18T22:34:28.770Z,20.29
2022-10-18T22:36:57.050Z,19.10
2022-10-18T22:39:25.159Z,18.48
2022-10-18T22:41:56.309Z,21.24
2022-10-18T22:44:24.289Z,20.62
2022-10-18T22:46:52.226Z,19.95
2022-10-18T22:49:20.142Z,19.67
2022-10-18T22:51:48.755Z,20.06
2022-10-18T22:54:16.812Z,19.60
2022-10-18T22:56:44.964Z,18.78
2022-10-18T22:59:13.756Z,18.22
2022-10-18T23:01:41.700Z,18.43
2022-10-18T23:04:10.555Z,18.39
2022-10-18T23:06:39.954Z,17.90
2022-10-18T23:09:10.327Z,19.44
2022-10-18T23:11:38.570Z,18.97
2022-10-18T23:14:07.118Z,18.60
2022-10-18T23:16:35.376Z,18.85
2022-10-18T23:19:04.092Z,18.06
2022-10-18T23:21:34.102Z,18.73
2022-10-18T23:24:02.000Z,18.42
2022-10-18T23:26:29.925Z,18.53
2022-10-18T23:28:58.054Z,18.67
2022-10-18T23:31:31.650Z,18.42
2022-10-18T23:34:04.914Z,17.87
2022-10-18T23:36:33.823Z,17.44
2022-10-18T23:39:03.414Z,17.54
2022-10-18T23:41:31.454Z,18.19
2022-10-18T23:43:59.792Z,17.75
2022-10-18T23:46:27.688Z,17.89
2022-10-18T23:48:55.698Z,18.13
2022-10-18T23:51:23.571Z,16.99
2022-10-18T23:53:51.494Z,17.59
2022-10-18T23:56:19.408Z,17.26
2022-10-18T23:58:47.397Z,17.57
